sensor_id;sensor_type;location;lat;lon;timestamp;P1;durP1;ratioP1;P2;durP2;ratioP2
21270;SDS011;10795;50.796;3.860;2023-01-15T00:00:19;8.43;;;1.60;;
21270;SDS011;10795;50.796;3.860;2023-01-15T00:02:45;9.70;;;1.33;;
21270;SDS011;10795;50.796;3.860;2023-01-15T00:05:11;15.70;;;1.73;;
21270;SDS011;10795;50.796;3.860;2023-01-15T00:07:37;9.25;;;1.70;;
21270;SDS011;10795;50.796;3.860;2023-01-15T00:10:03;11.40;;;1.58;;
21270;SDS011;10795;50.796;3.860;2023-01-15T00:12:29;11.60;;;1.67;;
21270;SDS011;10795;50.796;3.860;2023-01-15T00:14:55;19.98;;;1.40;;
21270;SDS011;10795;50.796;3.860;2023-01-15T00:17:22;16.75;;;1.48;;
21270;SDS011;10795;50.796;3.860;2023-01-15T00:19:48;10.73;;;1.85;;
21270;SDS011;10795;50.796;3.860;2023-01-15T00:22:13;10.27;;;1.60;;
21270;SDS011;10795;50.796;3.860;2023-01-15T00:24:39;13.60;;;1.48;;
21270;SDS011;10795;50.796;3.860;2023-01-15T00:27:29;8.55;;;1.13;;
21270;SDS011;10795;50.796;3.860;2023-01-15T00:30:05;6.20;;;1.20;;
21270;SDS011;10795;50.796;3.860;2023-01-15T00:32:32;9.27;;;1.58;;
21270;SDS011;10795;50.796;3.860;2023-01-15T00:34:58;13.25;;;1.20;;
21270;SDS011;10795;50.796;3.860;2023-01-15T00:37:24;7.38;;;1.65;;
21270;SDS011;10795;50.796;3.860;2023-01-15T00:39:50;13.60;;;1.25;;
21270;SDS011;10795;50.796;3.860;2023-01-15T00:42:16;8.77;;;1.40;;
21270;SDS011;10795;50.796;3.860;2023-01-15T00:44:42;11.60;;;1.30;;
21270;SDS011;10795;50.796;3.860;2023-01-15T00:47:09;10.93;;;1.58;;
21270;SDS011;10795;50.796;3.860;2023-01-15T00:49:42;5.10;;;1.48;;
21270;SDS011;10795;50.796;3.860;2023-01-15T00:52:08;5.30;;;0.77;;
21270;SDS011;10795;50.796;3.860;2023-01-15T00:54:35;8.52;;;1.20;;
21270;SDS011;10795;50.796;3.860;2023-01-15T00:57:01;9.25;;;1.88;;
21270;SDS011;10795;50.796;3.860;2023-01-15T00:59:27;10.60;;;1.30;;
21270;SDS011;10795;50.796;3.860;2023-01-15T01:01:53;13.40;;;1.55;;
21270;SDS011;10795;50.796;3.860;2023-01-15T01:04:18;11.70;;;1.55;;
21270;SDS011;10795;50.796;3.860;2023-01-15T01:06:44;9.18;;;1.50;;
21270;SDS011;10795;50.796;3.860;2023-01-15T01:09:14;11.68;;;1.30;;
21270;SDS011;10795;50.796;3.860;2023-01-15T01:11:41;13.77;;;1.50;;
21270;SDS011;10795;50.796;3.860;2023-01-15T01:14:09;9.90;;;1.85;;
21270;SDS011;10795;50.796;3.860;2023-01-15T01:16:39;7.28;;;1.40;;
21270;SDS011;10795;50.796;3.860;2023-01-15T01:21:35;11.88;;;1.25;;
21270;SDS011;10795;50.796;3.860;2023-01-15T01:24:02;9.63;;;1.60;;
21270;SDS011;10795;50.796;3.860;2023-01-15T01:26:28;12.82;;;1.77;;
21270;SDS011;10795;50.796;3.860;2023-01-15T01:28:54;14.20;;;1.90;;
21270;SDS011;10795;50.796;3.860;2023-01-15T01:31:21;12.70;;;2.20;;
21270;SDS011;10795;50.796;3.860;2023-01-15T01:33:48;14.88;;;2.00;;
21270;SDS011;10795;50.796;3.860;2023-01-15T01:36:15;11.43;;;2.08;;
21270;SDS011;10795;50.796;3.860;2023-01-15T01:38:41;9.15;;;2.08;;
21270;SDS011;10795;50.796;3.860;2023-01-15T01:41:09;15.25;;;2.22;;
21270;SDS011;10795;50.796;3.860;2023-01-15T01:43:50;9.95;;;2.03;;
21270;SDS011;10795;50.796;3.860;2023-01-15T01:46:22;8.48;;;1.40;;
21270;SDS011;10795;50.796;3.860;2023-01-15T01:48:49;9.32;;;1.80;;
21270;SDS011;10795;50.796;3.860;2023-01-15T01:51:18;14.07;;;1.83;;
21270;SDS011;10795;50.796;3.860;2023-01-15T01:53:48;11.77;;;1.83;;
21270;SDS011;10795;50.796;3.860;2023-01-15T01:56:14;12.40;;;1.67;;
21270;SDS011;10795;50.796;3.860;2023-01-15T01:58:42;12.73;;;1.90;;
21270;SDS011;10795;50.796;3.860;2023-01-15T02:01:13;9.43;;;1.80;;
21270;SDS011;10795;50.796;3.860;2023-01-15T02:03:39;9.65;;;1.50;;
21270;SDS011;10795;50.796;3.860;2023-01-15T02:06:06;10.48;;;1.83;;
21270;SDS011;10795;50.796;3.860;2023-01-15T02:08:34;18.07;;;2.00;;
21270;SDS011;10795;50.796;3.860;2023-01-15T02:11:04;11.68;;;2.33;;
21270;SDS011;10795;50.796;3.860;2023-01-15T02:16:48;8.90;;;1.63;;
21270;SDS011;10795;50.796;3.860;2023-01-15T02:24:42;8.65;;;1.20;;
21270;SDS011;10795;50.796;3.860;2023-01-15T02:27:33;11.32;;;1.73;;
21270;SDS011;10795;50.796;3.860;2023-01-15T02:30:05;14.30;;;1.85;;
21270;SDS011;10795;50.796;3.860;2023-01-15T02:32:53;8.50;;;1.55;;
21270;SDS011;10795;50.796;3.860;2023-01-15T02:35:45;9.23;;;1.50;;
21270;SDS011;10795;50.796;3.860;2023-01-15T02:38:16;9.73;;;1.23;;
21270;SDS011;10795;50.796;3.860;2023-01-15T02:40:49;11.15;;;1.55;;
21270;SDS011;10795;50.796;3.860;2023-01-15T02:43:19;11.20;;;1.50;;
21270;SDS011;10795;50.796;3.860;2023-01-15T02:45:48;11.10;;;1.38;;
21270;SDS011;10795;50.796;3.860;2023-01-15T02:48:17;12.15;;;1.42;;
21270;SDS011;10795;50.796;3.860;2023-01-15T02:50:49;12.27;;;2.05;;
21270;SDS011;10795;50.796;3.860;2023-01-15T02:53:21;9.57;;;1.13;;
21270;SDS011;10795;50.796;3.860;2023-01-15T02:55:53;12.68;;;1.70;;
21270;SDS011;10795;50.796;3.860;2023-01-15T02:58:28;10.80;;;1.52;;
21270;SDS011;10795;50.796;3.860;2023-01-15T03:00:59;9.77;;;2.00;;
21270;SDS011;10795;50.796;3.860;2023-01-15T03:03:44;11.27;;;1.38;;
21270;SDS011;10795;50.796;3.860;2023-01-15T03:06:26;10.00;;;2.08;;
21270;SDS011;10795;50.796;3.860;2023-01-15T03:09:06;8.52;;;1.35;;
21270;SDS011;10795;50.796;3.860;2023-01-15T03:11:33;10.25;;;1.70;;
21270;SDS011;10795;50.796;3.860;2023-01-15T03:14:07;9.00;;;1.83;;
21270;SDS011;10795;50.796;3.860;2023-01-15T03:16:40;8.40;;;1.50;;
21270;SDS011;10795;50.796;3.860;2023-01-15T03:24:53;13.02;;;1.67;;
21270;SDS011;10795;50.796;3.860;2023-01-15T03:29:53;7.57;;;1.80;;
21270;SDS011;10795;50.796;3.860;2023-01-15T03:32:25;9.43;;;1.38;;
21270;SDS011;10795;50.796;3.860;2023-01-15T03:34:53;12.73;;;1.75;;
21270;SDS011;10795;50.796;3.860;2023-01-15T03:37:21;13.55;;;1.83;;
21270;SDS011;10795;50.796;3.860;2023-01-15T03:39:52;9.13;;;1.63;;
21270;SDS011;10795;50.796;3.860;2023-01-15T03:47:36;8.80;;;1.40;;
21270;SDS011;10795;50.796;3.860;2023-01-15T03:50:10;8.77;;;1.27;;
21270;SDS011;10795;50.796;3.860;2023-01-15T03:58:24;9.20;;;1.65;;
21270;SDS011;10795;50.796;3.860;2023-01-15T04:00:57;6.55;;;1.48;;
21270;SDS011;10795;50.796;3.860;2023-01-15T04:03:25;10.45;;;1.40;;
21270;SDS011;10795;50.796;3.860;2023-01-15T04:05:53;7.50;;;1.35;;
21270;SDS011;10795;50.796;3.860;2023-01-15T04:08:23;12.20;;;1.90;;
21270;SDS011;10795;50.796;3.860;2023-01-15T04:10:56;6.55;;;1.35;;
21270;SDS011;10795;50.796;3.860;2023-01-15T04:13:27;12.68;;;1.60;;
21270;SDS011;10795;50.796;3.860;2023-01-15T04:15:53;11.13;;;1.25;;
21270;SDS011;10795;50.796;3.860;2023-01-15T04:18:20;7.72;;;1.35;;
21270;SDS011;10795;50.796;3.860;2023-01-15T04:20:46;11.70;;;1.50;;
21270;SDS011;10795;50.796;3.860;2023-01-15T04:23:12;11.52;;;1.30;;
21270;SDS011;10795;50.796;3.860;2023-01-15T04:25:39;8.55;;;1.13;;
21270;SDS011;10795;50.796;3.860;2023-01-15T04:28:05;9.15;;;1.30;;
21270;SDS011;10795;50.796;3.860;2023-01-15T04:30:31;11.32;;;1.50;;
21270;SDS011;10795;50.796;3.860;2023-01-15T04:32:58;14.40;;;1.60;;
21270;SDS011;10795;50.796;3.860;2023-01-15T04:35:24;8.95;;;1.50;;
21270;SDS011;10795;50.796;3.860;2023-01-15T04:37:56;8.75;;;1.40;;
21270;SDS011;10795;50.796;3.860;2023-01-15T04:40:22;7.88;;;1.33;;
21270;SDS011;10795;50.796;3.860;2023-01-15T04:43:09;9.10;;;1.40;;
21270;SDS011;10795;50.796;3.860;2023-01-15T04:45:54;11.80;;;1.65;;
21270;SDS011;10795;50.796;3.860;2023-01-15T04:48:20;8.75;;;1.30;;
21270;SDS011;10795;50.796;3.860;2023-01-15T04:50:47;9.15;;;1.73;;
21270;SDS011;10795;50.796;3.860;2023-01-15T04:53:13;12.15;;;1.30;;
21270;SDS011;10795;50.796;3.860;2023-01-15T04:55:39;7.55;;;1.13;;
21270;SDS011;10795;50.796;3.860;2023-01-15T04:58:05;4.22;;;1.23;;
21270;SDS011;10795;50.796;3.860;2023-01-15T05:00:31;5.10;;;1.00;;
21270;SDS011;10795;50.796;3.860;2023-01-15T05:02:57;7.90;;;0.90;;
21270;SDS011;10795;50.796;3.860;2023-01-15T05:05:22;5.72;;;0.90;;
21270;SDS011;10795;50.796;3.860;2023-01-15T05:07:48;4.07;;;0.90;;
21270;SDS011;10795;50.796;3.860;2023-01-15T05:10:14;3.42;;;0.70;;
21270;SDS011;10795;50.796;3.860;2023-01-15T05:12:40;12.05;;;0.90;;
21270;SDS011;10795;50.796;3.860;2023-01-15T05:15:06;5.68;;;0.88;;
21270;SDS011;10795;50.796;3.860;2023-01-15T05:17:32;5.00;;;0.95;;
21270;SDS011;10795;50.796;3.860;2023-01-15T05:19:58;6.68;;;0.90;;
21270;SDS011;10795;50.796;3.860;2023-01-15T05:22:24;4.38;;;0.70;;
21270;SDS011;10795;50.796;3.860;2023-01-15T05:24:50;6.38;;;0.90;;
21270;SDS011;10795;50.796;3.860;2023-01-15T05:27:16;6.05;;;0.60;;
21270;SDS011;10795;50.796;3.860;2023-01-15T05:29:42;5.55;;;0.70;;
21270;SDS011;10795;50.796;3.860;2023-01-15T05:32:08;9.75;;;0.70;;
21270;SDS011;10795;50.796;3.860;2023-01-15T05:34:34;6.47;;;1.00;;
21270;SDS011;10795;50.796;3.860;2023-01-15T05:37:00;4.45;;;0.65;;
21270;SDS011;10795;50.796;3.860;2023-01-15T05:39:26;6.53;;;0.80;;
21270;SDS011;10795;50.796;3.860;2023-01-15T05:41:52;5.65;;;0.70;;
21270;SDS011;10795;50.796;3.860;2023-01-15T05:44:25;4.10;;;0.75;;
21270;SDS011;10795;50.796;3.860;2023-01-15T05:46:53;3.83;;;0.75;;
21270;SDS011;10795;50.796;3.860;2023-01-15T05:49:22;3.70;;;0.40;;
21270;SDS011;10795;50.796;3.860;2023-01-15T05:51:50;6.32;;;0.80;;
21270;SDS011;10795;50.796;3.860;2023-01-15T05:54:18;5.22;;;1.17;;
21270;SDS011;10795;50.796;3.860;2023-01-15T05:56:46;4.70;;;0.70;;
21270;SDS011;10795;50.796;3.860;2023-01-15T05:59:13;3.05;;;0.47;;
21270;SDS011;10795;50.796;3.860;2023-01-15T06:01:40;5.45;;;0.70;;
21270;SDS011;10795;50.796;3.860;2023-01-15T06:04:07;6.18;;;0.60;;
21270;SDS011;10795;50.796;3.860;2023-01-15T06:06:34;5.60;;;0.70;;
21270;SDS011;10795;50.796;3.860;2023-01-15T06:09:00;7.63;;;0.80;;
21270;SDS011;10795;50.796;3.860;2023-01-15T06:11:27;4.93;;;0.50;;
21270;SDS011;10795;50.796;3.860;2023-01-15T06:13:53;5.75;;;0.90;;
21270;SDS011;10795;50.796;3.860;2023-01-15T06:16:19;6.88;;;0.52;;
21270;SDS011;10795;50.796;3.860;2023-01-15T06:18:45;11.52;;;0.90;;
21270;SDS011;10795;50.796;3.860;2023-01-15T06:21:11;8.50;;;1.42;;
21270;SDS011;10795;50.796;3.860;2023-01-15T06:23:38;8.38;;;0.85;;
21270;SDS011;10795;50.796;3.860;2023-01-15T06:26:06;5.13;;;0.75;;
21270;SDS011;10795;50.796;3.860;2023-01-15T06:28:33;7.95;;;1.05;;
21270;SDS011;10795;50.796;3.860;2023-01-15T06:30:59;11.00;;;0.98;;
21270;SDS011;10795;50.796;3.860;2023-01-15T06:33:28;5.75;;;0.82;;
21270;SDS011;10795;50.796;3.860;2023-01-15T06:35:53;10.02;;;0.95;;
21270;SDS011;10795;50.796;3.860;2023-01-15T06:38:19;5.18;;;0.75;;
21270;SDS011;10795;50.796;3.860;2023-01-15T06:40:45;8.90;;;0.90;;
21270;SDS011;10795;50.796;3.860;2023-01-15T06:43:11;4.90;;;0.70;;
21270;SDS011;10795;50.796;3.860;2023-01-15T06:45:55;6.90;;;1.55;;
21270;SDS011;10795;50.796;3.860;2023-01-15T06:48:40;7.88;;;0.70;;
21270;SDS011;10795;50.796;3.860;2023-01-15T06:51:07;7.80;;;1.33;;
21270;SDS011;10795;50.796;3.860;2023-01-15T06:53:33;9.05;;;1.48;;
21270;SDS011;10795;50.796;3.860;2023-01-15T06:56:00;7.88;;;0.90;;
21270;SDS011;10795;50.796;3.860;2023-01-15T06:58:26;8.82;;;1.15;;
21270;SDS011;10795;50.796;3.860;2023-01-15T07:00:51;5.40;;;0.88;;
21270;SDS011;10795;50.796;3.860;2023-01-15T07:03:21;11.75;;;1.10;;
21270;SDS011;10795;50.796;3.860;2023-01-15T07:05:47;7.57;;;0.90;;
21270;SDS011;10795;50.796;3.860;2023-01-15T07:08:13;9.48;;;0.93;;
21270;SDS011;10795;50.796;3.860;2023-01-15T07:10:39;10.77;;;1.48;;
21270;SDS011;10795;50.796;3.860;2023-01-15T07:13:05;15.48;;;1.20;;
21270;SDS011;10795;50.796;3.860;2023-01-15T07:15:33;7.50;;;1.05;;
21270;SDS011;10795;50.796;3.860;2023-01-15T07:17:59;5.38;;;0.88;;
21270;SDS011;10795;50.796;3.860;2023-01-15T07:20:25;8.02;;;1.38;;
21270;SDS011;10795;50.796;3.860;2023-01-15T07:22:51;7.15;;;1.02;;
21270;SDS011;10795;50.796;3.860;2023-01-15T07:25:17;6.78;;;1.02;;
21270;SDS011;10795;50.796;3.860;2023-01-15T07:27:44;8.90;;;0.90;;
21270;SDS011;10795;50.796;3.860;2023-01-15T07:30:12;15.80;;;1.40;;
21270;SDS011;10795;50.796;3.860;2023-01-15T07:32:38;8.75;;;1.20;;
21270;SDS011;10795;50.796;3.860;2023-01-15T07:35:04;9.68;;;1.58;;
21270;SDS011;10795;50.796;3.860;2023-01-15T07:37:30;10.27;;;1.23;;
21270;SDS011;10795;50.796;3.860;2023-01-15T07:39:56;12.85;;;1.63;;
21270;SDS011;10795;50.796;3.860;2023-01-15T07:42:22;11.85;;;2.00;;
21270;SDS011;10795;50.796;3.860;2023-01-15T07:45:07;10.27;;;1.13;;
21270;SDS011;10795;50.796;3.860;2023-01-15T07:47:52;7.05;;;1.33;;
21270;SDS011;10795;50.796;3.860;2023-01-15T07:50:37;11.57;;;1.90;;
21270;SDS011;10795;50.796;3.860;2023-01-15T07:53:03;13.63;;;2.05;;
21270;SDS011;10795;50.796;3.860;2023-01-15T07:55:28;16.52;;;2.58;;
21270;SDS011;10795;50.796;3.860;2023-01-15T07:57:54;12.38;;;2.30;;
21270;SDS011;10795;50.796;3.860;2023-01-15T08:00:22;14.25;;;2.25;;
21270;SDS011;10795;50.796;3.860;2023-01-15T08:02:48;13.55;;;1.73;;
21270;SDS011;10795;50.796;3.860;2023-01-15T08:05:15;19.10;;;2.45;;
21270;SDS011;10795;50.796;3.860;2023-01-15T08:07:41;10.45;;;1.83;;
21270;SDS011;10795;50.796;3.860;2023-01-15T08:10:08;13.75;;;1.80;;
21270;SDS011;10795;50.796;3.860;2023-01-15T08:12:35;11.10;;;1.67;;
21270;SDS011;10795;50.796;3.860;2023-01-15T08:15:20;13.35;;;1.70;;
21270;SDS011;10795;50.796;3.860;2023-01-15T08:17:46;20.42;;;3.33;;
21270;SDS011;10795;50.796;3.860;2023-01-15T08:20:17;10.68;;;1.85;;
21270;SDS011;10795;50.796;3.860;2023-01-15T08:22:45;9.43;;;1.67;;
21270;SDS011;10795;50.796;3.860;2023-01-15T08:25:12;10.57;;;2.05;;
21270;SDS011;10795;50.796;3.860;2023-01-15T08:27:40;6.80;;;1.20;;
21270;SDS011;10795;50.796;3.860;2023-01-15T08:30:08;9.00;;;1.35;;
21270;SDS011;10795;50.796;3.860;2023-01-15T08:32:45;9.60;;;1.23;;
21270;SDS011;10795;50.796;3.860;2023-01-15T08:35:11;13.48;;;1.70;;
21270;SDS011;10795;50.796;3.860;2023-01-15T08:37:38;12.82;;;1.50;;
21270;SDS011;10795;50.796;3.860;2023-01-15T08:40:07;7.70;;;1.20;;
21270;SDS011;10795;50.796;3.860;2023-01-15T08:42:35;8.57;;;1.45;;
21270;SDS011;10795;50.796;3.860;2023-01-15T08:45:01;8.00;;;1.27;;
21270;SDS011;10795;50.796;3.860;2023-01-15T08:47:26;9.15;;;1.27;;
21270;SDS011;10795;50.796;3.860;2023-01-15T08:49:52;8.68;;;1.25;;
21270;SDS011;10795;50.796;3.860;2023-01-15T08:52:19;11.48;;;1.23;;
21270;SDS011;10795;50.796;3.860;2023-01-15T08:54:44;9.82;;;1.83;;
21270;SDS011;10795;50.796;3.860;2023-01-15T08:57:10;8.90;;;1.17;;
21270;SDS011;10795;50.796;3.860;2023-01-15T08:59:37;5.03;;;1.33;;
21270;SDS011;10795;50.796;3.860;2023-01-15T09:02:03;8.27;;;1.20;;
21270;SDS011;10795;50.796;3.860;2023-01-15T09:04:29;4.22;;;0.95;;
21270;SDS011;10795;50.796;3.860;2023-01-15T09:06:55;10.00;;;2.13;;
21270;SDS011;10795;50.796;3.860;2023-01-15T09:09:21;8.25;;;1.23;;
21270;SDS011;10795;50.796;3.860;2023-01-15T09:11:46;8.18;;;1.35;;
21270;SDS011;10795;50.796;3.860;2023-01-15T09:14:13;9.23;;;1.30;;
21270;SDS011;10795;50.796;3.860;2023-01-15T09:16:39;8.68;;;1.15;;
21270;SDS011;10795;50.796;3.860;2023-01-15T09:19:06;10.57;;;0.98;;
21270;SDS011;10795;50.796;3.860;2023-01-15T09:21:33;6.25;;;1.55;;
21270;SDS011;10795;50.796;3.860;2023-01-15T09:23:59;2.40;;;0.88;;
21270;SDS011;10795;50.796;3.860;2023-01-15T09:26:36;6.18;;;0.80;;
21270;SDS011;10795;50.796;3.860;2023-01-15T09:29:03;7.32;;;0.90;;
21270;SDS011;10795;50.796;3.860;2023-01-15T09:31:30;6.63;;;1.10;;
21270;SDS011;10795;50.796;3.860;2023-01-15T09:33:56;4.53;;;0.90;;
21270;SDS011;10795;50.796;3.860;2023-01-15T09:36:26;5.18;;;0.73;;
21270;SDS011;10795;50.796;3.860;2023-01-15T09:38:54;7.80;;;0.90;;
21270;SDS011;10795;50.796;3.860;2023-01-15T09:41:21;5.43;;;0.82;;
21270;SDS011;10795;50.796;3.860;2023-01-15T09:49:36;4.82;;;0.70;;
21270;SDS011;10795;50.796;3.860;2023-01-15T09:52:24;5.55;;;1.42;;
21270;SDS011;10795;50.796;3.860;2023-01-15T09:57:16;4.78;;;0.95;;
21270;SDS011;10795;50.796;3.860;2023-01-15T09:59:45;4.97;;;1.15;;
21270;SDS011;10795;50.796;3.860;2023-01-15T10:05:14;9.65;;;2.45;;
21270;SDS011;10795;50.796;3.860;2023-01-15T10:07:55;6.57;;;2.08;;
21270;SDS011;10795;50.796;3.860;2023-01-15T10:10:28;6.18;;;1.35;;
21270;SDS011;10795;50.796;3.860;2023-01-15T10:13:11;5.75;;;1.75;;
21270;SDS011;10795;50.796;3.860;2023-01-15T10:15:58;6.30;;;1.95;;
21270;SDS011;10795;50.796;3.860;2023-01-15T10:18:24;7.07;;;2.60;;
21270;SDS011;10795;50.796;3.860;2023-01-15T10:32:02;5.07;;;1.80;;
21270;SDS011;10795;50.796;3.860;2023-01-15T10:35:03;6.60;;;1.40;;
21270;SDS011;10795;50.796;3.860;2023-01-15T10:46:39;6.57;;;1.83;;
21270;SDS011;10795;50.796;3.860;2023-01-15T10:49:15;5.05;;;2.17;;
21270;SDS011;10795;50.796;3.860;2023-01-15T11:05:00;11.90;;;3.75;;
21270;SDS011;10795;50.796;3.860;2023-01-15T11:07:30;14.60;;;5.80;;
21270;SDS011;10795;50.796;3.860;2023-01-15T11:10:04;9.77;;;2.78;;
21270;SDS011;10795;50.796;3.860;2023-01-15T11:12:44;9.57;;;3.17;;
21270;SDS011;10795;50.796;3.860;2023-01-15T11:15:36;10.73;;;2.75;;
21270;SDS011;10795;50.796;3.860;2023-01-15T11:18:27;4.85;;;1.98;;
21270;SDS011;10795;50.796;3.860;2023-01-15T11:21:15;9.35;;;2.78;;
21270;SDS011;10795;50.796;3.860;2023-01-15T11:23:43;4.75;;;1.85;;
21270;SDS011;10795;50.796;3.860;2023-01-15T11:26:09;7.28;;;1.67;;
21270;SDS011;10795;50.796;3.860;2023-01-15T11:28:44;10.90;;;2.53;;
21270;SDS011;10795;50.796;3.860;2023-01-15T11:31:11;4.75;;;1.85;;
21270;SDS011;10795;50.796;3.860;2023-01-15T11:33:37;7.03;;;1.35;;
21270;SDS011;10795;50.796;3.860;2023-01-15T11:36:05;6.35;;;1.30;;
21270;SDS011;10795;50.796;3.860;2023-01-15T11:42:05;4.55;;;1.20;;
21270;SDS011;10795;50.796;3.860;2023-01-15T11:48:44;4.85;;;1.05;;
21270;SDS011;10795;50.796;3.860;2023-01-15T12:03:03;6.20;;;1.42;;
21270;SDS011;10795;50.796;3.860;2023-01-15T12:06:22;5.10;;;1.30;;
21270;SDS011;10795;50.796;3.860;2023-01-15T13:15:15;3.25;;;1.50;;
21270;SDS011;10795;50.796;3.860;2023-01-15T13:18:01;6.72;;;2.10;;
21270;SDS011;10795;50.796;3.860;2023-01-15T13:36:10;6.35;;;2.47;;
21270;SDS011;10795;50.796;3.860;2023-01-15T13:38:47;7.28;;;1.65;;
21270;SDS011;10795;50.796;3.860;2023-01-15T13:44:46;4.18;;;1.60;;
21270;SDS011;10795;50.796;3.860;2023-01-15T13:48:27;2.25;;;1.38;;
21270;SDS011;10795;50.796;3.860;2023-01-15T13:50:51;6.15;;;1.65;;
21270;SDS011;10795;50.796;3.860;2023-01-15T13:56:35;6.85;;;2.28;;
21270;SDS011;10795;50.796;3.860;2023-01-15T13:59:33;8.85;;;1.80;;
21270;SDS011;10795;50.796;3.860;2023-01-15T14:02:33;5.25;;;1.52;;
21270;SDS011;10795;50.796;3.860;2023-01-15T14:05:52;7.32;;;1.60;;
21270;SDS011;10795;50.796;3.860;2023-01-15T14:19:25;4.30;;;0.93;;
21270;SDS011;10795;50.796;3.860;2023-01-15T14:30:04;2.88;;;1.50;;
21270;SDS011;10795;50.796;3.860;2023-01-15T14:36:24;7.13;;;1.63;;
21270;SDS011;10795;50.796;3.860;2023-01-15T14:42:06;4.72;;;1.40;;
21270;SDS011;10795;50.796;3.860;2023-01-15T14:48:00;2.55;;;1.00;;
21270;SDS011;10795;50.796;3.860;2023-01-15T15:02:14;9.40;;;4.55;;
21270;SDS011;10795;50.796;3.860;2023-01-15T15:04:54;10.23;;;3.33;;
21270;SDS011;10795;50.796;3.860;2023-01-15T15:07:41;9.20;;;3.63;;
21270;SDS011;10795;50.796;3.860;2023-01-15T15:10:23;3.80;;;1.75;;
21270;SDS011;10795;50.796;3.860;2023-01-15T15:13:30;3.40;;;1.63;;
21270;SDS011;10795;50.796;3.860;2023-01-15T15:16:07;3.55;;;1.35;;
21270;SDS011;10795;50.796;3.860;2023-01-15T15:22:16;3.58;;;1.10;;
21270;SDS011;10795;50.796;3.860;2023-01-15T15:25:03;3.15;;;1.27;;
21270;SDS011;10795;50.796;3.860;2023-01-15T15:27:47;5.10;;;1.48;;
21270;SDS011;10795;50.796;3.860;2023-01-15T15:33:39;6.10;;;1.70;;
21270;SDS011;10795;50.796;3.860;2023-01-15T15:36:27;5.03;;;2.20;;
21270;SDS011;10795;50.796;3.860;2023-01-15T15:39:23;3.47;;;1.70;;
21270;SDS011;10795;50.796;3.860;2023-01-15T15:42:32;4.20;;;1.80;;
21270;SDS011;10795;50.796;3.860;2023-01-15T15:45:57;3.72;;;2.08;;
21270;SDS011;10795;50.796;3.860;2023-01-15T15:51:38;7.70;;;2.80;;
21270;SDS011;10795;50.796;3.860;2023-01-15T15:54:22;4.78;;;2.30;;
21270;SDS011;10795;50.796;3.860;2023-01-15T15:59:33;4.57;;;2.80;;
21270;SDS011;10795;50.796;3.860;2023-01-15T16:10:44;6.22;;;2.20;;
21270;SDS011;10795;50.796;3.860;2023-01-15T16:16:23;5.97;;;3.17;;
21270;SDS011;10795;50.796;3.860;2023-01-15T16:19:01;4.50;;;2.33;;
21270;SDS011;10795;50.796;3.860;2023-01-15T16:21:31;4.47;;;1.85;;
21270;SDS011;10795;50.796;3.860;2023-01-15T16:24:04;2.55;;;1.25;;
21270;SDS011;10795;50.796;3.860;2023-01-15T16:29:15;6.85;;;2.00;;
21270;SDS011;10795;50.796;3.860;2023-01-15T16:31:46;2.13;;;1.30;;
21270;SDS011;10795;50.796;3.860;2023-01-15T16:34:16;1.73;;;1.50;;
21270;SDS011;10795;50.796;3.860;2023-01-15T16:37:26;3.20;;;1.98;;
21270;SDS011;10795;50.796;3.860;2023-01-15T16:39:59;5.82;;;1.95;;
21270;SDS011;10795;50.796;3.860;2023-01-15T16:42:42;4.95;;;1.80;;
21270;SDS011;10795;50.796;3.860;2023-01-15T16:45:23;7.05;;;1.60;;
21270;SDS011;10795;50.796;3.860;2023-01-15T16:50:33;3.53;;;1.60;;
21270;SDS011;10795;50.796;3.860;2023-01-15T16:57:29;7.63;;;1.73;;
21270;SDS011;10795;50.796;3.860;2023-01-15T17:00:46;6.82;;;1.60;;
21270;SDS011;10795;50.796;3.860;2023-01-15T19:51:09;3.72;;;1.30;;
21270;SDS011;10795;50.796;3.860;2023-01-15T19:53:35;5.65;;;1.23;;
21270;SDS011;10795;50.796;3.860;2023-01-15T19:56:05;2.72;;;1.30;;
21270;SDS011;10795;50.796;3.860;2023-01-15T19:58:35;4.50;;;1.10;;
21270;SDS011;10795;50.796;3.860;2023-01-15T20:01:05;4.88;;;1.63;;
21270;SDS011;10795;50.796;3.860;2023-01-15T20:03:39;2.70;;;1.00;;
21270;SDS011;10795;50.796;3.860;2023-01-15T20:06:10;3.35;;;0.90;;
21270;SDS011;10795;50.796;3.860;2023-01-15T20:08:38;4.80;;;0.80;;
21270;SDS011;10795;50.796;3.860;2023-01-15T20:11:10;7.80;;;0.70;;
21270;SDS011;10795;50.796;3.860;2023-01-15T20:13:38;3.90;;;0.90;;
21270;SDS011;10795;50.796;3.860;2023-01-15T20:16:18;1.17;;;0.70;;
21270;SDS011;10795;50.796;3.860;2023-01-15T20:18:50;4.63;;;0.70;;
21270;SDS011;10795;50.796;3.860;2023-01-15T20:21:22;1.83;;;0.57;;
21270;SDS011;10795;50.796;3.860;2023-01-15T20:23:48;5.20;;;1.08;;
21270;SDS011;10795;50.796;3.860;2023-01-15T20:26:23;1.65;;;0.65;;
21270;SDS011;10795;50.796;3.860;2023-01-15T20:28:50;5.00;;;0.60;;
21270;SDS011;10795;50.796;3.860;2023-01-15T20:31:17;4.45;;;0.70;;
21270;SDS011;10795;50.796;3.860;2023-01-15T20:33:46;3.85;;;0.57;;
21270;SDS011;10795;50.796;3.860;2023-01-15T20:36:23;3.58;;;0.85;;
21270;SDS011;10795;50.796;3.860;2023-01-15T20:38:56;5.50;;;1.00;;
21270;SDS011;10795;50.796;3.860;2023-01-15T20:41:22;1.58;;;0.68;;
21270;SDS011;10795;50.796;3.860;2023-01-15T20:44:10;2.72;;;0.75;;
21270;SDS011;10795;50.796;3.860;2023-01-15T20:46:54;5.20;;;1.40;;
21270;SDS011;10795;50.796;3.860;2023-01-15T20:49:23;3.88;;;1.40;;
21270;SDS011;10795;50.796;3.860;2023-01-15T20:51:49;4.38;;;1.40;;
21270;SDS011;10795;50.796;3.860;2023-01-15T20:54:17;5.55;;;1.83;;
21270;SDS011;10795;50.796;3.860;2023-01-15T20:56:43;4.63;;;1.20;;
21270;SDS011;10795;50.796;3.860;2023-01-15T20:59:09;2.17;;;0.98;;
21270;SDS011;10795;50.796;3.860;2023-01-15T21:01:36;3.70;;;0.85;;
21270;SDS011;10795;50.796;3.860;2023-01-15T21:04:07;3.45;;;0.90;;
21270;SDS011;10795;50.796;3.860;2023-01-15T21:06:42;3.65;;;0.85;;
21270;SDS011;10795;50.796;3.860;2023-01-15T21:09:11;6.22;;;1.15;;
21270;SDS011;10795;50.796;3.860;2023-01-15T21:11:47;7.05;;;1.35;;
21270;SDS011;10795;50.796;3.860;2023-01-15T21:14:13;5.85;;;0.98;;
21270;SDS011;10795;50.796;3.860;2023-01-15T21:16:39;3.60;;;1.00;;
21270;SDS011;10795;50.796;3.860;2023-01-15T21:19:05;4.22;;;1.10;;
21270;SDS011;10795;50.796;3.860;2023-01-15T21:21:31;5.93;;;1.08;;
21270;SDS011;10795;50.796;3.860;2023-01-15T21:24:00;2.50;;;0.85;;
21270;SDS011;10795;50.796;3.860;2023-01-15T21:26:26;6.90;;;0.98;;
21270;SDS011;10795;50.796;3.860;2023-01-15T21:28:53;6.35;;;1.00;;
21270;SDS011;10795;50.796;3.860;2023-01-15T21:31:20;6.88;;;1.00;;
21270;SDS011;10795;50.796;3.860;2023-01-15T21:33:46;7.50;;;1.00;;
21270;SDS011;10795;50.796;3.860;2023-01-15T21:36:13;4.05;;;0.80;;
21270;SDS011;10795;50.796;3.860;2023-01-15T21:38:39;5.95;;;1.20;;
21270;SDS011;10795;50.796;3.860;2023-01-15T21:41:12;7.53;;;1.05;;
21270;SDS011;10795;50.796;3.860;2023-01-15T21:43:40;3.83;;;0.93;;
21270;SDS011;10795;50.796;3.860;2023-01-15T21:46:40;2.38;;;0.70;;
21270;SDS011;10795;50.796;3.860;2023-01-15T21:49:09;3.78;;;0.93;;
21270;SDS011;10795;50.796;3.860;2023-01-15T21:51:35;5.95;;;1.20;;
21270;SDS011;10795;50.796;3.860;2023-01-15T21:54:01;3.22;;;0.93;;
21270;SDS011;10795;50.796;3.860;2023-01-15T21:56:27;2.75;;;0.80;;
21270;SDS011;10795;50.796;3.860;2023-01-15T21:58:53;3.50;;;0.93;;
21270;SDS011;10795;50.796;3.860;2023-01-15T22:01:19;3.05;;;1.02;;
21270;SDS011;10795;50.796;3.860;2023-01-15T22:03:45;3.17;;;0.75;;
21270;SDS011;10795;50.796;3.860;2023-01-15T22:06:13;5.55;;;0.93;;
21270;SDS011;10795;50.796;3.860;2023-01-15T22:08:45;5.10;;;1.08;;
21270;SDS011;10795;50.796;3.860;2023-01-15T22:11:11;2.05;;;0.70;;
21270;SDS011;10795;50.796;3.860;2023-01-15T22:13:42;5.75;;;1.10;;